Time;durP1;ratioP1;P1;durP2;ratioP2;P2;SDS_P1;SDS_P2;PMS_P1;PMS_P2;Temp;Humidity;BMP_temperature;BMP_pressure;BME280_temperature;BME280_humidity;BME280_pressure;Samples;Min_cycle;Max_cycle;Signal;HPM_P1;HPM_P2
2023/11/18 00:00:32;;;;;;;1.73;0.77;;;6.00;98.40;;;;;;5066794;28;21362;-77
2023/11/18 00:02:58;;;;;;;1.35;0.30;;;6.20;98.00;;;;;;5067313;28;20142;-77
2023/11/18 00:05:24;;;;;;;0.80;0.32;;;6.30;98.00;;;;;;5067193;28;20090;-77
2023/11/18 00:07:50;;;;;;;1.67;0.47;;;6.10;98.20;;;;;;5067482;28;20047;-77
2023/11/18 00:10:16;;;;;;;1.85;0.85;;;5.90;98.70;;;;;;5068364;28;20467;-78
2023/11/18 00:12:41;;;;;;;0.85;0.30;;;6.00;98.50;;;;;;5066922;28;20132;-77
2023/11/18 00:15:11;;;;;;;1.38;0.60;;;6.10;98.10;;;;;;5067291;28;20579;-77
2023/11/18 00:17:37;;;;;;;1.58;0.52;;;6.10;98.40;;;;;;5068441;28;20028;-77
2023/11/18 00:20:09;;;;;;;0.40;0.20;;;5.90;98.70;;;;;;5066426;28;20028;-77
2023/11/18 00:22:38;;;;;;;0.28;0.20;;;6.00;98.40;;;;;;5066451;28;21290;-77
2023/11/18 00:25:14;;;;;;;0.68;0.20;;;6.00;98.60;;;;;;5067539;28;20036;-77
2023/11/18 00:27:40;;;;;;;0.82;0.20;;;6.20;97.90;;;;;;5067244;28;20066;-77
2023/11/18 00:30:10;;;;;;;1.10;0.43;;;6.20;97.80;;;;;;5066884;28;20036;-76
2023/11/18 00:32:37;;;;;;;0.25;0.15;;;6.20;97.70;;;;;;5066199;28;20131;-77
2023/11/18 00:35:04;;;;;;;0.50;0.28;;;6.20;97.80;;;;;;5067446;28;20051;-76
2023/11/18 00:37:31;;;;;;;0.52;0.30;;;6.20;97.90;;;;;;5067928;28;20059;-77
2023/11/18 00:39:56;;;;;;;0.52;0.30;;;6.30;97.40;;;;;;5066853;28;20031;-77
2023/11/18 00:42:22;;;;;;;0.28;0.20;;;6.40;97.20;;;;;;5069837;28;20043;-77
2023/11/18 00:44:48;;;;;;;2.33;0.38;;;6.60;97.00;;;;;;5068840;28;20386;-77
2023/11/18 00:47:14;;;;;;;0.80;0.30;;;6.50;97.20;;;;;;5067705;28;20024;-77
2023/11/18 00:49:40;;;;;;;0.45;0.13;;;6.50;97.20;;;;;;5069608;28;20036;-77
2023/11/18 00:52:06;;;;;;;0.50;0.20;;;6.40;97.30;;;;;;5067717;28;20124;-77
2023/11/18 00:54:32;;;;;;;0.50;0.28;;;6.50;96.90;;;;;;5068779;28;20032;-77
2023/11/18 00:56:57;;;;;;;0.45;0.22;;;6.40;97.30;;;;;;5071436;28;20079;-77
2023/11/18 00:59:23;;;;;;;0.65;0.30;;;6.40;97.30;;;;;;5072736;28;20059;-77
2023/11/18 01:01:49;;;;;;;1.65;0.30;;;6.10;97.70;;;;;;5073270;28;20759;-77
2023/11/18 01:04:15;;;;;;;0.80;0.20;;;6.10;97.90;;;;;;5074323;28;20059;-77
2023/11/18 01:06:42;;;;;;;1.02;0.30;;;6.30;97.60;;;;;;5072586;28;20081;-77
2023/11/18 01:09:09;;;;;;;1.45;0.50;;;6.60;97.10;;;;;;5074187;28;20024;-76
2023/11/18 01:11:35;;;;;;;0.73;0.17;;;6.20;97.80;;;;;;5073848;28;20032;-77
2023/11/18 01:14:01;;;;;;;0.52;0.20;;;6.20;97.50;;;;;;5072436;28;20086;-77
2023/11/18 01:16:28;;;;;;;1.60;0.32;;;6.20;97.50;;;;;;5072807;28;20134;-77
2023/11/18 01:18:54;;;;;;;0.52;0.20;;;6.00;97.70;;;;;;5074382;28;20047;-76
2023/11/18 01:21:20;;;;;;;0.75;0.30;;;5.90;97.90;;;;;;5072656;28;20123;-77
2023/11/18 01:23:46;;;;;;;0.68;0.20;;;6.00;97.90;;;;;;5071825;28;20036;-76
2023/11/18 01:26:12;;;;;;;0.88;0.25;;;6.00;98.00;;;;;;5072741;28;20036;-76
2023/11/18 01:28:41;;;;;;;0.93;0.30;;;6.10;97.70;;;;;;5072197;28;20043;-77
2023/11/18 01:31:10;;;;;;;0.77;0.25;;;6.20;97.60;;;;;;5072383;28;20039;-76
2023/11/18 01:33:40;;;;;;;0.85;0.32;;;6.10;97.80;;;;;;5073347;28;20431;-76
2023/11/18 01:36:08;;;;;;;0.73;0.20;;;6.20;97.80;;;;;;5073415;28;20052;-77
2023/11/18 01:38:34;;;;;;;1.05;0.40;;;6.10;97.80;;;;;;5071352;28;20059;-77
2023/11/18 01:41:00;;;;;;;0.70;0.25;;;6.10;97.80;;;;;;5073974;28;20397;-76
2023/11/18 01:43:26;;;;;;;0.73;0.40;;;6.10;97.80;;;;;;5072783;28;20032;-76
2023/11/18 01:45:53;;;;;;;0.52;0.32;;;6.00;97.90;;;;;;5072662;28;20434;-77
2023/11/18 01:48:22;;;;;;;1.33;0.68;;;6.00;98.10;;;;;;5073087;28;20039;-76
2023/11/18 01:50:49;;;;;;;1.50;0.50;;;5.90;98.30;;;;;;5072398;28;20039;-77
2023/11/18 01:53:15;;;;;;;2.05;0.70;;;5.90;98.60;;;;;;5071096;28;20024;-76
2023/11/18 01:55:41;;;;;;;1.63;0.65;;;5.60;99.70;;;;;;5072568;28;20638;-77
2023/11/18 01:58:10;;;;;;;1.17;0.52;;;5.60;99.70;;;;;;5072688;28;20028;-76
2023/11/18 02:00:39;;;;;;;0.95;0.30;;;5.60;99.80;;;;;;5072823;28;20455;-76
2023/11/18 02:03:05;;;;;;;1.00;0.52;;;5.40;99.90;;;;;;5075935;28;20510;-77
2023/11/18 02:05:34;;;;;;;1.27;0.50;;;5.40;99.90;;;;;;5077193;28;20032;-76
2023/11/18 02:08:03;;;;;;;1.55;0.60;;;5.30;99.90;;;;;;5076126;28;20032;-77
2023/11/18 02:10:30;;;;;;;1.58;0.50;;;4.90;99.90;;;;;;5075846;28;20077;-77
2023/11/18 02:13:12;;;;;;;2.45;0.90;;;4.80;99.90;;;;;;5077860;28;20032;-76
2023/11/18 02:15:39;;;;;;;0.90;0.35;;;4.80;99.90;;;;;;5077559;28;20177;-76
2023/11/18 02:18:10;;;;;;;1.70;0.52;;;4.70;99.90;;;;;;5072283;28;20101;-76
2023/11/18 02:20:39;;;;;;;1.38;0.50;;;5.10;99.90;;;;;;5073957;28;20040;-76
2023/11/18 02:23:07;;;;;;;2.20;0.85;;;5.10;99.90;;;;;;5075496;28;20040;-77
2023/11/18 02:25:34;;;;;;;0.80;0.20;;;4.90;99.90;;;;;;5074123;28;20395;-76
2023/11/18 02:28:00;;;;;;;0.40;0.20;;;5.00;99.90;;;;;;5074320;28;20173;-76
2023/11/18 02:30:27;;;;;;;0.90;0.40;;;5.30;99.80;;;;;;5076570;28;20040;-76
2023/11/18 02:33:05;;;;;;;1.00;0.50;;;5.40;99.70;;;;;;5077547;28;20027;-76
2023/11/18 02:35:37;;;;;;;1.08;0.50;;;5.40;99.70;;;;;;5075184;28;20081;-76
2023/11/18 02:38:04;;;;;;;0.35;0.30;;;5.50;99.90;;;;;;5072716;28;20123;-76
2023/11/18 02:40:36;;;;;;;0.82;0.30;;;5.60;99.20;;;;;;5076228;28;20078;-77
2023/11/18 02:43:06;;;;;;;1.23;0.30;;;5.70;98.90;;;;;;5077130;28;20106;-76
2023/11/18 02:45:35;;;;;;;0.50;0.20;;;5.70;98.90;;;;;;5076732;28;20046;-76
2023/11/18 02:48:01;;;;;;;1.38;0.45;;;5.60;99.60;;;;;;5074238;28;20447;-76
2023/11/18 02:50:27;;;;;;;1.77;0.38;;;5.60;99.40;;;;;;5073492;28;20451;-77
2023/11/18 02:52:54;;;;;;;1.35;0.70;;;5.50;99.90;;;;;;5076647;28;20036;-76
2023/11/18 02:55:21;;;;;;;2.53;1.08;;;5.20;99.90;;;;;;5074661;28;20040;-77
2023/11/18 02:57:46;;;;;;;1.77;0.85;;;5.00;99.90;;;;;;5071059;28;20038;-76
2023/11/18 03:00:21;;;;;;;0.93;0.40;;;5.00;99.90;;;;;;5074941;28;20031;-76
2023/11/18 03:02:48;;;;;;;;;;;5.10;99.90;;;;;;5072342;28;20059;-76
2023/11/18 03:05:14;;;;;;;0.55;0.20;;;5.30;99.70;;;;;;5074040;28;20326;-77
2023/11/18 03:07:50;;;;;;;0.43;0.20;;;5.50;99.20;;;;;;5075129;28;20051;-78
2023/11/18 03:10:22;;;;;;;1.17;0.65;;;5.60;99.10;;;;;;5074945;28;20109;-77
2023/11/18 03:12:52;;;;;;;2.05;0.73;;;5.40;99.90;;;;;;5074851;28;20385;-76
2023/11/18 03:15:19;;;;;;;1.92;0.77;;;5.20;99.90;;;;;;5073829;28;20592;-76
2023/11/18 03:17:46;;;;;;;2.22;0.65;;;5.00;99.90;;;;;;5075191;28;20063;-77
2023/11/18 03:20:14;;;;;;;0.82;0.40;;;4.80;99.90;;;;;;5075011;28;20028;-76
2023/11/18 03:22:41;;;;;;;0.63;0.30;;;4.70;99.90;;;;;;5070668;28;20439;-77
2023/11/18 03:25:07;;;;;;;0.17;0.17;;;5.10;99.90;;;;;;5072947;28;20032;-77
2023/11/18 03:27:33;;;;;;;0.98;0.40;;;5.20;99.90;;;;;;5071464;28;20032;-76
2023/11/18 03:29:59;;;;;;;1.90;0.55;;;5.10;99.90;;;;;;5072189;28;20386;-76
2023/11/18 03:32:25;;;;;;;1.77;0.60;;;4.90;99.90;;;;;;5070741;28;20048;-77
2023/11/18 03:34:50;;;;;;;1.35;0.75;;;4.80;99.90;;;;;;5075503;28;20068;-77
2023/11/18 03:37:16;;;;;;;3.00;1.10;;;4.80;99.90;;;;;;5075294;28;20066;-77
2023/11/18 03:39:41;;;;;;;2.47;1.10;;;4.60;99.90;;;;;;5073656;28;20028;-76
2023/11/18 03:42:08;;;;;;;2.78;1.17;;;4.40;99.90;;;;;;5073453;28;20060;-76
2023/11/18 03:44:34;;;;;;;1.23;0.43;;;4.30;99.90;;;;;;5073548;28;20128;-77
2023/11/18 03:46:59;;;;;;;2.65;0.43;;;4.40;99.90;;;;;;5076286;28;20985;-77
2023/11/18 03:49:25;;;;;;;1.88;0.38;;;4.70;99.90;;;;;;5073910;28;20032;-76
2023/11/18 03:51:51;;;;;;;0.70;0.40;;;4.80;99.90;;;;;;5071282;28;20059;-76
2023/11/18 03:54:16;;;;;;;1.25;0.25;;;5.00;99.90;;;;;;5074849;28;20135;-76
2023/11/18 03:56:42;;;;;;;0.52;0.10;;;5.00;99.90;;;;;;5073344;28;20043;-77
2023/11/18 03:59:09;;;;;;;0.20;0.20;;;5.00;99.90;;;;;;5072021;28;20123;-77
2023/11/18 04:01:34;;;;;;;0.65;0.30;;;4.90;99.90;;;;;;5072502;28;20377;-76
2023/11/18 04:04:00;;;;;;;0.90;0.35;;;5.00;99.90;;;;;;5068456;28;20052;-77
2023/11/18 04:06:26;;;;;;;1.02;0.30;;;5.30;99.90;;;;;;5069263;28;20028;-77
2023/11/18 04:08:52;;;;;;;1.15;0.43;;;5.20;99.90;;;;;;5069363;28;20067;-77
2023/11/18 04:11:18;;;;;;;0.73;0.40;;;5.20;99.90;;;;;;5067365;28;20059;-77
2023/11/18 04:13:44;;;;;;;1.60;0.40;;;5.10;99.90;;;;;;5068047;28;20575;-77
2023/11/18 04:16:17;;;;;;;1.40;0.40;;;5.00;99.90;;;;;;5070565;28;20040;-77
2023/11/18 04:18:44;;;;;;;0.52;0.20;;;5.10;99.90;;;;;;5065989;28;20063;-77
2023/11/18 04:21:11;;;;;;;1.67;0.52;;;5.10;99.90;;;;;;5065496;28;20024;-77
2023/11/18 04:23:37;;;;;;;0.65;0.20;;;4.80;99.90;;;;;;5066117;28;20050;-77
2023/11/18 04:26:04;;;;;;;0.47;0.38;;;4.70;99.90;;;;;;5070643;28;20036;-77
2023/11/18 04:28:29;;;;;;;1.20;0.47;;;4.90;99.90;;;;;;5069383;28;20486;-77
2023/11/18 04:30:55;;;;;;;1.02;0.40;;;5.00;99.90;;;;;;5068705;28;20043;-76
2023/11/18 04:33:21;;;;;;;1.58;0.65;;;5.00;99.90;;;;;;5068420;28;20043;-77
2023/11/18 04:35:47;;;;;;;2.67;1.13;;;5.00;99.90;;;;;;5069232;28;21062;-77
2023/11/18 04:38:13;;;;;;;2.15;0.90;;;4.80;99.90;;;;;;5068317;28;20683;-77
2023/11/18 04:40:40;;;;;;;1.65;0.63;;;4.70;99.90;;;;;;5067399;28;20032;-77
2023/11/18 04:43:07;;;;;;;1.40;0.57;;;4.70;99.90;;;;;;5068356;28;20044;-77
2023/11/18 04:45:32;;;;;;;0.88;0.35;;;4.60;99.90;;;;;;5069372;28;20031;-77
2023/11/18 04:47:59;;;;;;;1.08;0.57;;;4.60;99.90;;;;;;5071331;28;20040;-77
2023/11/18 04:50:25;;;;;;;1.98;0.77;;;4.80;99.90;;;;;;5065981;28;20028;-77
2023/11/18 04:52:50;;;;;;;2.17;0.70;;;4.80;99.90;;;;;;5067819;28;20034;-77
2023/11/18 04:55:16;;;;;;;1.15;0.65;;;4.70;99.90;;;;;;5069886;28;20039;-77
2023/11/18 04:57:43;;;;;;;0.52;0.32;;;4.60;99.90;;;;;;5068111;28;20047;-77
2023/11/18 05:00:12;;;;;;;2.85;1.05;;;4.60;99.90;;;;;;5062661;28;20036;-77
2023/11/18 05:02:40;;;;;;;2.47;1.08;;;4.40;99.90;;;;;;5064231;28;20051;-77
2023/11/18 05:05:06;;;;;;;2.28;0.90;;;4.10;99.90;;;;;;5068249;28;20040;-77
2023/11/18 05:07:33;;;;;;;1.83;0.50;;;4.00;99.90;;;;;;5066725;28;20028;-77
2023/11/18 05:09:59;;;;;;;1.20;0.60;;;3.80;99.90;;;;;;5067553;28;20114;-77
2023/11/18 05:12:26;;;;;;;0.73;0.50;;;3.90;99.90;;;;;;5068603;28;20600;-77
2023/11/18 05:14:51;;;;;;;1.88;0.80;;;4.00;99.90;;;;;;5068837;28;20607;-77
2023/11/18 05:17:17;;;;;;;0.52;0.38;;;4.20;99.90;;;;;;5067754;28;20064;-76
2023/11/18 05:19:43;;;;;;;1.65;0.52;;;4.10;99.90;;;;;;5070658;28;20110;-78
2023/11/18 05:22:09;;;;;;;1.08;0.40;;;4.10;99.90;;;;;;5067478;28;20618;-78
2023/11/18 05:24:35;;;;;;;2.22;0.38;;;4.10;99.90;;;;;;5068868;28;20028;-78
2023/11/18 05:27:03;;;;;;;0.85;0.30;;;4.20;99.90;;;;;;5070670;28;20161;-78
2023/11/18 05:29:29;;;;;;;1.05;0.30;;;4.40;99.90;;;;;;5068791;28;20525;-78
2023/11/18 05:31:55;;;;;;;0.75;0.35;;;4.50;99.90;;;;;;5068204;28;20039;-78
2023/11/18 05:34:23;;;;;;;0.95;0.45;;;4.60;99.90;;;;;;5067104;28;20031;-76
2023/11/18 05:36:54;;;;;;;0.60;0.30;;;4.50;99.90;;;;;;5068432;28;20347;-78
2023/11/18 05:39:20;;;;;;;0.52;0.15;;;4.40;99.90;;;;;;5069063;28;20016;-78
2023/11/18 05:41:49;;;;;;;0.98;0.38;;;4.50;99.90;;;;;;5067793;28;20039;-78
2023/11/18 05:44:19;;;;;;;1.75;0.57;;;4.60;99.90;;;;;;5067577;28;20035;-78
2023/11/18 05:46:51;;;;;;;1.02;0.30;;;4.60;99.90;;;;;;5069498;28;20120;-78
2023/11/18 05:49:17;;;;;;;0.35;0.10;;;4.80;99.90;;;;;;5067756;28;20032;-78
2023/11/18 05:51:44;;;;;;;0.70;0.22;;;4.80;99.90;;;;;;5064890;28;20034;-78
2023/11/18 05:54:10;;;;;;;0.15;0.15;;;5.00;99.90;;;;;;5064756;28;20039;-79
2023/11/18 05:56:36;;;;;;;0.85;0.30;;;5.00;99.90;;;;;;5068149;28;20040;-78
2023/11/18 05:59:05;;;;;;;1.10;0.20;;;5.00;99.90;;;;;;5064882;28;20043;-76
2023/11/18 06:01:31;;;;;;;0.40;0.10;;;5.20;99.90;;;;;;5065637;28;20664;-77
2023/11/18 06:03:57;;;;;;;0.68;0.20;;;5.40;99.60;;;;;;5066128;28;20048;-79
2023/11/18 06:06:23;;;;;;;1.00;0.30;;;5.30;99.60;;;;;;5066617;28;20244;-76
2023/11/18 06:08:49;;;;;;;1.17;0.68;;;5.10;99.90;;;;;;5068035;28;20465;-77
2023/11/18 06:11:16;;;;;;;126.18;73.13;;;5.00;99.90;;;;;;5069063;28;20024;-77
2023/11/18 06:13:50;;;;;;;66.82;37.58;;;4.70;99.90;;;;;;5069140;28;20039;-79
2023/11/18 06:16:20;;;;;;;52.25;29.35;;;4.40;99.90;;;;;;5067786;28;20473;-79
2023/11/18 06:18:46;;;;;;;17.65;8.60;;;4.00;99.90;;;;;;5068294;28;20024;-79
2023/11/18 06:21:18;;;;;;;10.55;5.40;;;3.70;99.90;;;;;;5069038;28;20107;-77
2023/11/18 06:23:45;;;;;;;15.93;8.98;;;3.70;99.90;;;;;;5069220;28;20032;-76
2023/11/18 06:26:11;;;;;;;21.50;11.65;;;3.70;99.90;;;;;;5067669;28;20086;-79
2023/11/18 06:28:41;;;;;;;35.42;19.63;;;3.70;99.90;;;;;;5068019;28;20107;-78
2023/11/18 06:31:08;;;;;;;28.45;14.38;;;3.70;99.90;;;;;;5069526;28;20119;-78
2023/11/18 06:33:45;;;;;;;10.43;5.75;;;3.60;99.90;;;;;;5069070;28;20486;-76
2023/11/18 06:36:13;;;;;;;15.30;7.30;;;3.60;99.90;;;;;;5067455;28;20036;-76
2023/11/18 06:38:40;;;;;;;6.88;3.58;;;3.50;99.90;;;;;;5069118;28;20584;-77
2023/11/18 06:41:08;;;;;;;7.68;3.47;;;3.50;99.90;;;;;;5068458;28;20590;-79
2023/11/18 06:46:15;;;;;;;4.72;2.63;;;3.20;99.90;;;;;;5067083;28;20051;-78
2023/11/18 06:48:40;;;;;;;5.05;2.30;;;3.20;99.90;;;;;;5070968;28;20036;-78
2023/11/18 06:51:08;;;;;;;4.20;2.03;;;3.30;99.90;;;;;;5072671;28;20049;-78
2023/11/18 06:53:34;;;;;;;5.35;2.15;;;3.20;99.90;;;;;;5068243;28;20476;-78
2023/11/18 06:56:00;;;;;;;3.85;1.88;;;3.30;99.90;;;;;;5071188;28;20120;-77
2023/11/18 06:58:26;;;;;;;2.83;1.30;;;3.20;99.90;;;;;;5072316;28;20040;-76
2023/11/18 07:00:52;;;;;;;5.82;1.50;;;3.20;99.90;;;;;;5071248;28;21245;-77
2023/11/18 07:03:18;;;;;;;2.67;1.23;;;3.30;99.90;;;;;;5071628;28;20087;-76
2023/11/18 07:05:44;;;;;;;2.47;1.27;;;3.30;99.90;;;;;;5072030;28;20438;-76
2023/11/18 07:08:10;;;;;;;2.67;1.00;;;3.30;99.90;;;;;;5067938;28;20146;-77
2023/11/18 07:10:38;;;;;;;2.55;0.90;;;3.30;99.90;;;;;;5071634;28;21132;-77
2023/11/18 07:13:03;;;;;;;2.17;0.98;;;3.50;99.90;;;;;;5071935;28;20032;-77
2023/11/18 07:15:29;;;;;;;11.32;5.30;;;3.50;99.90;;;;;;5068719;28;20555;-76
2023/11/18 07:17:55;;;;;;;4.60;1.60;;;3.50;99.90;;;;;;5070723;28;20071;-79
2023/11/18 07:20:21;;;;;;;1.48;0.73;;;3.60;99.90;;;;;;5069788;28;20040;-78
2023/11/18 07:22:47;;;;;;;1.58;0.65;;;3.70;99.90;;;;;;5071214;28;20119;-78
2023/11/18 07:25:12;;;;;;;1.85;0.88;;;3.80;99.90;;;;;;5071393;28;20558;-79
2023/11/18 07:27:38;;;;;;;1.75;0.80;;;3.80;99.90;;;;;;5068647;28;20080;-78
2023/11/18 07:30:10;;;;;;;2.70;1.10;;;3.90;99.90;;;;;;5069671;28;20028;-78
2023/11/18 07:32:36;;;;;;;2.15;0.90;;;4.00;99.90;;;;;;5071044;28;20032;-78
2023/11/18 07:35:01;;;;;;;2.67;1.00;;;4.00;99.90;;;;;;5073177;28;20409;-79
2023/11/18 07:37:27;;;;;;;1.83;0.95;;;4.00;99.90;;;;;;5071244;28;20032;-79
2023/11/18 07:39:55;;;;;;;2.05;0.80;;;3.90;99.90;;;;;;5070782;28;20863;-78
2023/11/18 07:42:20;;;;;;;4.90;0.82;;;3.90;99.90;;;;;;5072260;28;20040;-79
2023/11/18 07:44:47;;;;;;;0.47;0.40;;;4.10;99.90;;;;;;5070656;28;20031;-78
2023/11/18 07:47:16;;;;;;;0.82;0.30;;;4.30;99.90;;;;;;5070074;28;20039;-77
2023/11/18 07:49:41;;;;;;;1.35;0.30;;;4.50;99.90;;;;;;5071138;28;20123;-78
2023/11/18 07:52:07;;;;;;;0.45;0.20;;;4.90;99.90;;;;;;5071137;28;20088;-79
2023/11/18 07:54:33;;;;;;;1.25;0.65;;;5.00;99.90;;;;;;5074592;28;20044;-78
2023/11/18 07:56:59;;;;;;;2.22;0.80;;;4.70;99.90;;;;;;5076503;28;20393;-77
2023/11/18 07:59:24;;;;;;;0.77;0.47;;;4.50;99.90;;;;;;5068857;28;20703;-76
2023/11/18 08:01:50;;;;;;;1.98;0.82;;;4.60;99.90;;;;;;5071953;28;20038;-76
2023/11/18 08:04:20;;;;;;;1.15;0.50;;;4.40;99.90;;;;;;5070481;28;20462;-77
2023/11/18 08:06:46;;;;;;;0.68;0.22;;;4.60;99.90;;;;;;5063077;28;26050;-77
2023/11/18 08:09:13;;;;;;;2.88;0.35;;;5.20;99.90;;;;;;5066651;28;20035;-77
2023/11/18 08:11:41;;;;;;;0.57;0.20;;;5.70;99.80;;;;;;5060861;28;20128;-78
2023/11/18 08:14:10;;;;;;;2.28;1.20;;;6.00;98.80;;;;;;5057489;28;21153;-77
2023/11/18 08:16:36;;;;;;;3.83;1.52;;;5.40;99.90;;;;;;5064077;28;20478;-76
2023/11/18 08:19:07;;;;;;;3.60;1.50;;;4.70;99.90;;;;;;5065348;28;21313;-77
2023/11/18 08:21:34;;;;;;;3.53;1.45;;;4.50;99.90;;;;;;5066824;28;20068;-76
2023/11/18 08:24:00;;;;;;;2.33;1.17;;;4.30;99.90;;;;;;5067198;28;20032;-76
2023/11/18 08:26:26;;;;;;;2.22;0.93;;;4.40;99.90;;;;;;5067003;28;20118;-77
2023/11/18 08:28:51;;;;;;;1.73;0.80;;;4.50;99.90;;;;;;5064785;28;20465;-76
2023/11/18 08:31:17;;;;;;;0.95;0.50;;;4.90;99.90;;;;;;5066235;28;20035;-76
2023/11/18 08:33:45;;;;;;;0.40;0.15;;;5.50;99.90;;;;;;5069452;28;20039;-77
2023/11/18 08:36:12;;;;;;;0.93;0.30;;;6.10;98.40;;;;;;5066960;28;20036;-77
2023/11/18 08:38:38;;;;;;;3.28;0.70;;;6.40;98.10;;;;;;5063885;28;20028;-78
2023/11/18 08:41:05;;;;;;;2.45;0.93;;;6.40;98.80;;;;;;5067294;28;20036;-77
2023/11/18 08:43:31;;;;;;;1.52;0.65;;;5.80;99.60;;;;;;5064312;28;20120;-76
2023/11/18 08:45:57;;;;;;;0.77;0.38;;;5.90;99.70;;;;;;5065353;28;20088;-77
2023/11/18 08:48:22;;;;;;;2.05;0.88;;;5.90;99.90;;;;;;5067704;28;20550;-77
2023/11/18 08:50:49;;;;;;;1.67;0.73;;;5.90;99.90;;;;;;5070434;28;20040;-77
2023/11/18 08:53:17;;;;;;;2.95;1.13;;;5.80;99.90;;;;;;5073687;28;20588;-76
2023/11/18 08:56:19;;;;;;;2.35;1.08;;;5.50;99.90;;;;;;5072607;28;20066;-76
2023/11/18 08:58:38;;;;;;;2.00;1.20;;;5.50;99.90;;;;;;5071613;28;20089;-78
2023/11/18 09:01:13;;;;;;;1.05;0.50;;;5.70;99.90;;;;;;5066249;28;20501;-80
2023/11/18 09:03:51;;;;;;;1.38;0.50;;;5.90;99.90;;;;;;5070419;28;20072;-77
2023/11/18 09:06:17;;;;;;;2.75;1.30;;;5.90;99.90;;;;;;5072494;28;20036;-76
2023/11/18 09:08:57;;;;;;;1.67;0.90;;;6.10;99.70;;;;;;5072865;28;20039;-76
2023/11/18 09:11:26;;;;;;;1.65;0.73;;;6.30;98.90;;;;;;5075190;28;20036;-79
2023/11/18 09:13:59;;;;;;;3.50;1.38;;;6.50;98.60;;;;;;5077224;28;20074;-78
2023/11/18 09:16:29;;;;;;;6.38;3.85;;;6.40;99.80;;;;;;5075522;28;20048;-80
2023/11/18 09:18:56;;;;;;;4.35;1.83;;;6.20;99.90;;;;;;5076079;28;20032;-77
2023/11/18 09:21:29;;;;;;;2.95;1.35;;;6.10;99.90;;;;;;5077513;28;20093;-80
2023/11/18 09:23:56;;;;;;;3.25;1.75;;;6.10;99.90;;;;;;5075329;28;20050;-78
2023/11/18 09:26:22;;;;;;;3.78;1.75;;;6.20;99.90;;;;;;5076561;28;20032;-77
2023/11/18 09:28:49;;;;;;;3.10;1.40;;;6.40;99.90;;;;;;5077533;28;20031;-79
2023/11/18 09:31:16;;;;;;;3.45;1.13;;;6.40;99.90;;;;;;5077160;28;20039;-78
2023/11/18 09:33:51;;;;;;;2.45;1.15;;;6.50;99.90;;;;;;5077368;28;20074;-80
2023/11/18 09:36:18;;;;;;;2.72;1.20;;;6.70;99.30;;;;;;5077028;28;20042;-80
2023/11/18 09:38:46;;;;;;;3.70;1.70;;;6.80;99.90;;;;;;5075105;28;20036;-80
2023/11/18 09:41:12;;;;;;;4.72;1.42;;;6.80;99.90;;;;;;5076238;28;20152;-82
2023/11/18 09:43:47;;;;;;;3.33;1.40;;;6.80;99.90;;;;;;5075560;28;20047;-81
2023/11/18 09:46:14;;;;;;;2.88;1.40;;;6.80;99.90;;;;;;5076413;28;20032;-80
2023/11/18 09:48:59;;;;;;;7.97;6.03;;;6.80;99.90;;;;;;5074170;28;20120;-80
2023/11/18 09:51:33;;;;;;;5.85;2.97;;;6.90;99.30;;;;;;5074305;28;20561;-85
2023/11/18 09:54:10;;;;;;;5.95;4.28;;;7.10;98.30;;;;;;5073253;28;20031;-86
2023/11/18 09:57:08;;;;;;;4.35;3.30;;;7.10;98.60;;;;;;5072894;28;20363;-81
2023/11/18 09:59:53;;;;;;;3.03;1.48;;;7.10;99.00;;;;;;5073966;28;20031;-81
2023/11/18 10:02:19;;;;;;;4.20;1.38;;;7.10;98.10;;;;;;5073368;28;20051;-78
2023/11/18 10:04:49;;;;;;;1.73;0.80;;;7.70;99.50;;;;;;5075682;28;20031;-81
2023/11/18 10:07:19;;;;;;;1.60;0.70;;;7.80;97.00;;;;;;5076290;28;20142;-80
2023/11/18 10:09:45;;;;;;;1.95;0.77;;;7.80;97.20;;;;;;5076280;28;20431;-78
2023/11/18 10:12:16;;;;;;;4.32;1.00;;;7.80;97.30;;;;;;5076620;28;20020;-79
2023/11/18 10:14:45;;;;;;;1.45;0.60;;;7.90;97.80;;;;;;5076597;28;20036;-80
2023/11/18 10:17:14;;;;;;;2.17;1.08;;;8.00;96.10;;;;;;5075452;28;20052;-80
2023/11/18 10:20:12;;;;;;;2.55;0.77;;;8.10;95.40;;;;;;5075291;28;20439;-80
2023/11/18 10:22:38;;;;;;;1.75;0.68;;;8.10;96.40;;;;;;5078288;28;20032;-79
2023/11/18 10:25:06;;;;;;;3.15;1.00;;;8.10;96.50;;;;;;5079960;28;20493;-79
2023/11/18 10:27:34;;;;;;;1.85;0.75;;;8.10;95.60;;;;;;5078968;28;20433;-78
2023/11/18 10:30:04;;;;;;;1.58;0.60;;;8.20;95.60;;;;;;5085389;28;20032;-78
2023/11/18 10:32:35;;;;;;;3.88;1.80;;;8.20;95.70;;;;;;5079114;28;20275;-77
2023/11/18 10:35:04;;;;;;;3.70;1.70;;;8.10;95.90;;;;;;5080344;28;20189;-79
2023/11/18 10:37:31;;;;;;;2.17;0.90;;;8.20;95.50;;;;;;5080124;28;20131;-79
2023/11/18 10:39:57;;;;;;;1.70;0.68;;;8.30;95.00;;;;;;5078295;28;20031;-79
2023/11/18 10:42:30;;;;;;;1.05;0.52;;;8.40;95.10;;;;;;5078505;28;20036;-78
2023/11/18 10:45:03;;;;;;;2.65;0.45;;;8.50;94.90;;;;;;5080554;28;20027;-78
2023/11/18 10:47:32;;;;;;;3.88;0.82;;;8.60;94.00;;;;;;5078625;28;20016;-78
2023/11/18 10:49:58;;;;;;;61.33;27.55;;;8.60;94.10;;;;;;5079207;28;20032;-77
2023/11/18 10:52:37;;;;;;;66.78;29.40;;;8.70;95.10;;;;;;5078718;28;20032;-78
2023/11/18 10:55:11;;;;;;;541.88;241.45;;;8.90;94.80;;;;;;5079795;28;20698;-77
2023/11/18 10:57:38;;;;;;;286.67;113.55;;;9.10;94.70;;;;;;5078598;28;20059;-79
2023/11/18 11:00:14;;;;;;;17.15;8.70;;;9.20;95.30;;;;;;5078486;28;20051;-78
2023/11/18 11:02:41;;;;;;;5.97;3.70;;;9.40;94.90;;;;;;5077705;28;20052;-77
2023/11/18 11:05:15;;;;;;;6.97;5.72;;;9.30;94.60;;;;;;5078529;28;20058;-76
2023/11/18 11:07:43;;;;;;;7.30;4.90;;;9.50;95.00;;;;;;5078328;28;20036;-78
2023/11/18 11:10:10;;;;;;;31.75;27.98;;;9.40;94.70;;;;;;5079202;28;20059;-77
2023/11/18 11:12:51;;;;;;;74.13;51.92;;;9.50;94.40;;;;;;5079346;28;20016;-77
2023/11/18 11:15:31;;;;;;;22.02;16.17;;;9.70;93.90;;;;;;5078292;28;20024;-77
2023/11/18 11:18:08;;;;;;;67.55;40.67;;;9.70;93.60;;;;;;5078194;28;20093;-77
2023/11/18 11:20:42;;;;;;;28.05;19.40;;;9.70;94.10;;;;;;5078829;28;20028;-76
2023/11/18 11:23:53;;;;;;;11.32;6.82;;;9.70;94.00;;;;;;5077150;28;20039;-77
2023/11/18 11:26:42;;;;;;;4.38;2.13;;;9.60;93.90;;;;;;5077357;28;20032;-77
2023/11/18 11:29:26;;;;;;;2.85;1.40;;;9.90;93.20;;;;;;5077671;28;20091;-77
2023/11/18 11:32:06;;;;;;;11.30;7.78;;;10.00;92.10;;;;;;5078054;28;20498;-77
2023/11/18 11:34:34;;;;;;;4.18;2.05;;;10.20;93.00;;;;;;5078157;28;20066;-76
2023/11/18 11:37:01;;;;;;;12.18;10.93;;;10.30;93.50;;;;;;5077873;28;20036;-77
2023/11/18 11:39:29;;;;;;;9.02;5.80;;;10.40;93.70;;;;;;5077804;28;20049;-77
2023/11/18 11:41:56;;;;;;;8.30;5.30;;;10.50;92.90;;;;;;5077837;28;20032;-77
2023/11/18 11:44:30;;;;;;;2.10;0.95;;;10.70;92.60;;;;;;5077761;28;20106;-77
2023/11/18 11:46:59;;;;;;;3.37;1.03;;;10.60;92.00;;;;;;5077241;28;20032;-77
2023/11/18 11:49:33;;;;;;;3.67;1.23;;;10.70;92.50;;;;;;5077221;28;20119;-77
2023/11/18 11:52:00;;;;;;;1.45;0.57;;;10.80;92.50;;;;;;5078638;28;20482;-77
2023/11/18 11:54:29;;;;;;;3.00;1.27;;;10.60;91.00;;;;;;5077874;28;20024;-77
2023/11/18 11:57:00;;;;;;;4.65;2.58;;;10.70;91.60;;;;;;5077852;28;20925;-77
2023/11/18 11:59:44;;;;;;;15.00;7.60;;;10.70;92.10;;;;;;5078010;28;20115;-77
2023/11/18 12:02:10;;;;;;;7.28;4.47;;;10.80;91.90;;;;;;5077673;28;20121;-77
2023/11/18 12:04:38;;;;;;;6.63;3.50;;;10.90;92.00;;;;;;5077604;28;20035;-77
2023/11/18 12:07:08;;;;;;;9.32;2.88;;;11.00;92.20;;;;;;5077651;28;20370;-77
2023/11/18 12:09:38;;;;;;;5.00;1.67;;;11.00;91.20;;;;;;5077375;28;20031;-77
2023/11/18 12:12:09;;;;;;;3.58;1.67;;;11.00;91.10;;;;;;5077178;28;20039;-77
2023/11/18 12:14:52;;;;;;;4.53;1.75;;;11.00;91.20;;;;;;5077140;28;20532;-77
2023/11/18 12:17:24;;;;;;;3.42;1.20;;;11.00;91.20;;;;;;5077001;28;20024;-77
2023/11/18 12:19:56;;;;;;;39.17;16.48;;;11.00;91.50;;;;;;5076481;28;20103;-77
2023/11/18 12:22:26;;;;;;;24.42;14.85;;;11.10;91.30;;;;;;5076854;28;20028;-77
2023/11/18 12:24:58;;;;;;;30.08;18.27;;;11.20;90.90;;;;;;5077649;28;20028;-77
2023/11/18 12:27:51;;;;;;;31.38;18.38;;;11.50;90.00;;;;;;5077624;28;20043;-77
2023/11/18 12:30:23;;;;;;;31.88;20.48;;;11.50;89.90;;;;;;5077382;28;20532;-77
2023/11/18 12:33:11;;;;;;;12.20;5.95;;;11.50;89.20;;;;;;5076714;28;20537;-77
2023/11/18 12:36:07;;;;;;;4.45;2.17;;;11.40;90.40;;;;;;5076509;28;20040;-77
2023/11/18 12:39:03;;;;;;;3.85;1.88;;;11.40;88.50;;;;;;5076813;28;20024;-78
2023/11/18 12:41:39;;;;;;;;;;;11.40;90.70;;;;;;5076168;28;20040;-78
2023/11/18 12:44:18;;;;;;;14.90;9.05;;;11.40;90.10;;;;;;5076667;28;20291;-77
2023/11/18 12:47:18;;;;;;;28.95;16.30;;;11.40;90.50;;;;;;5077250;28;20098;-77
2023/11/18 12:49:49;;;;;;;7.32;2.85;;;11.50;90.30;;;;;;5074759;28;20040;-77
2023/11/18 12:52:18;;;;;;;35.55;19.30;;;11.40;90.80;;;;;;5076781;28;20036;-77
2023/11/18 12:54:50;;;;;;;21.02;12.10;;;11.50;90.90;;;;;;5076507;28;20036;-78
2023/11/18 12:57:16;;;;;;;27.05;12.48;;;11.50;91.10;;;;;;5076044;28;20377;-78
2023/11/18 12:59:43;;;;;;;25.67;12.07;;;11.50;91.10;;;;;;5076111;28;20034;-77
2023/11/18 13:02:13;;;;;;;22.60;12.00;;;11.40;91.10;;;;;;5076663;28;20052;-77
2023/11/18 13:04:41;;;;;;;13.20;6.97;;;11.50;91.00;;;;;;5076327;28;20107;-78